createdAt,value
2019-02-28T00:01:48.514Z,1.80
2019-02-28T00:05:14.471Z,1.70
2019-02-28T00:08:40.426Z,1.80
2019-02-28T00:16:10.419Z,1.90
2019-02-28T00:19:36.277Z,1.90
2019-02-28T00:23:02.401Z,1.90
2019-02-28T00:26:48.090Z,2.00
2019-02-28T00:30:06.004Z,2.10
2019-02-28T00:37:43.187Z,2.00
2019-02-28T00:41:10.028Z,2.00
2019-02-28T00:44:54.251Z,1.90
2019-02-28T00:48:12.949Z,1.80
2019-02-28T00:51:31.216Z,2.00
2019-02-28T00:54:50.868Z,2.20
2019-02-28T00:58:09.021Z,2.40
2019-02-28T01:01:27.782Z,2.50
2019-02-28T01:04:46.631Z,2.60
2019-02-28T01:08:05.472Z,2.70
2019-02-28T01:11:24.510Z,2.70
2019-02-28T01:14:43.735Z,2.70
2019-02-28T01:18:03.836Z,2.80
2019-02-28T01:21:23.898Z,2.60
2019-02-28T01:24:42.841Z,2.50
2019-02-28T01:28:01.113Z,2.40
2019-02-28T01:31:20.173Z,2.40
2019-02-28T01:34:53.338Z,2.40
2019-02-28T01:38:19.415Z,2.50
2019-02-28T01:41:45.883Z,2.60
2019-02-28T01:45:30.565Z,2.60
2019-02-28T01:48:48.877Z,2.70
2019-02-28T01:52:09.624Z,2.70
2019-02-28T01:55:33.841Z,2.60
2019-02-28T01:58:59.684Z,2.30
2019-02-28T02:02:25.703Z,1.90
2019-02-28T02:05:52.641Z,1.90
2019-02-28T02:09:37.504Z,2.10
2019-02-28T02:16:54.077Z,2.10
2019-02-28T02:20:20.152Z,2.00
2019-02-28T02:23:46.096Z,2.00
2019-02-28T02:27:12.878Z,1.90
2019-02-28T02:34:29.868Z,1.60
2019-02-28T02:38:15.184Z,1.50
2019-02-28T02:41:41.108Z,1.40
2019-02-28T02:45:07.874Z,1.30
2019-02-28T02:48:25.956Z,1.20
2019-02-28T02:51:49.119Z,1.30
2019-02-28T02:55:04.637Z,1.30
2019-02-28T02:58:26.645Z,1.30
2019-02-28T03:01:44.227Z,1.20
2019-02-28T03:05:03.686Z,1.10
2019-02-28T03:08:22.615Z,1.20
2019-02-28T03:11:42.397Z,1.10
2019-02-28T03:15:00.992Z,1.10
2019-02-28T03:18:21.884Z,1.10
2019-02-28T03:25:33.278Z,1.00
2019-02-28T03:29:07.439Z,0.90
2019-02-28T03:32:45.814Z,1.00
2019-02-28T03:36:32.200Z,1.00
2019-02-28T03:40:03.139Z,0.90
2019-02-28T03:43:44.196Z,0.90
2019-02-28T03:47:40.583Z,1.10
2019-02-28T03:51:35.258Z,1.20
2019-02-28T03:55:03.209Z,0.90
2019-02-28T04:02:58.996Z,0.80
2019-02-28T04:06:42.373Z,0.70
2019-02-28T04:13:19.565Z,0.70
2019-02-28T04:17:04.591Z,0.70
2019-02-28T04:20:42.470Z,0.70
2019-02-28T04:24:15.719Z,0.60
2019-02-28T04:27:41.953Z,0.50
2019-02-28T04:31:26.891Z,0.50
2019-02-28T04:34:52.843Z,0.60
2019-02-28T04:38:20.725Z,0.60
2019-02-28T04:42:24.463Z,0.50
2019-02-28T04:46:11.902Z,0.40
2019-02-28T04:49:30.813Z,0.40
2019-02-28T04:52:49.586Z,0.40
2019-02-28T04:56:11.213Z,0.40
2019-02-28T04:59:28.289Z,0.30
2019-02-28T05:02:47.140Z,0.30
2019-02-28T05:06:06.056Z,0.30
2019-02-28T05:09:24.938Z,0.30
2019-02-28T05:12:44.703Z,0.40
2019-02-28T05:16:03.087Z,0.40
2019-02-28T05:19:21.871Z,0.40
2019-02-28T05:22:40.585Z,0.60
2019-02-28T05:25:59.491Z,0.50
2019-02-28T05:29:17.681Z,0.40
2019-02-28T05:32:36.382Z,0.40
2019-02-28T05:35:43.298Z,0.40
2019-02-28T05:39:09.172Z,0.40
2019-02-28T05:42:35.092Z,0.40
2019-02-28T05:46:01.043Z,0.40
2019-02-28T05:49:20.081Z,0.30
2019-02-28T05:52:38.223Z,0.20
2019-02-28T05:55:59.695Z,0.20
2019-02-28T05:59:15.231Z,0.30
2019-02-28T06:02:41.213Z,0.30
2019-02-28T06:06:08.040Z,0.30
2019-02-28T06:09:52.201Z,0.30
2019-02-28T06:13:37.093Z,0.30
2019-02-28T06:17:01.657Z,0.30
2019-02-28T06:20:08.941Z,0.20
2019-02-28T06:23:15.901Z,0.20
2019-02-28T06:26:22.750Z,0.30
2019-02-28T06:29:29.562Z,0.30
2019-02-28T06:32:36.521Z,0.30
2019-02-28T06:35:43.422Z,0.50
2019-02-28T06:38:51.501Z,0.60
2019-02-28T06:42:16.711Z,0.60
2019-02-28T06:45:42.686Z,0.70
2019-02-28T06:49:06.099Z,0.90
2019-02-28T06:52:22.282Z,1.20
2019-02-28T06:55:29.203Z,1.20
2019-02-28T06:58:55.267Z,1.40
2019-02-28T07:02:21.140Z,1.50
2019-02-28T07:05:46.999Z,1.50
2019-02-28T07:09:12.806Z,1.60
2019-02-28T07:12:38.668Z,1.80
2019-02-28T07:16:04.727Z,2.00
2019-02-28T07:19:30.598Z,2.20
2019-02-28T07:22:56.483Z,2.30
2019-02-28T07:26:22.532Z,2.80
2019-02-28T07:29:29.405Z,3.10
2019-02-28T07:32:55.295Z,3.30
2019-02-28T07:36:21.267Z,3.50
2019-02-28T07:39:28.148Z,3.60
2019-02-28T07:42:54.135Z,4.00
2019-02-28T07:46:00.931Z,4.20
2019-02-28T07:49:07.746Z,4.40
2019-02-28T07:52:16.958Z,4.60
2019-02-28T07:55:27.293Z,4.90
2019-02-28T08:01:37.544Z,5.30
2019-02-28T08:05:05.186Z,5.40
2019-02-28T08:08:31.367Z,5.60
2019-02-28T08:11:57.354Z,5.90
2019-02-28T08:15:41.382Z,6.30
2019-02-28T08:19:08.108Z,6.70
2019-02-28T08:22:56.857Z,7.20
2019-02-28T08:26:39.379Z,7.60
2019-02-28T08:30:06.198Z,8.10
2019-02-28T08:33:33.197Z,8.50
2019-02-28T08:36:59.280Z,9.20
2019-02-28T08:40:26.647Z,9.90
2019-02-28T08:44:12.876Z,10.30
2019-02-28T08:47:57.816Z,10.70
2019-02-28T08:51:16.805Z,11.20
2019-02-28T08:54:35.549Z,11.90
2019-02-28T08:57:57.856Z,12.30
2019-02-28T09:01:15.709Z,12.60
2019-02-28T09:04:41.295Z,13.20
2019-02-28T09:07:55.754Z,13.60
2019-02-28T09:11:20.647Z,13.80
2019-02-28T09:14:38.885Z,13.90
2019-02-28T09:17:59.372Z,14.10
2019-02-28T09:21:20.784Z,14.20
2019-02-28T09:24:40.628Z,14.50
2019-02-28T09:27:58.923Z,14.80
2019-02-28T09:31:18.079Z,14.90
2019-02-28T09:34:37.856Z,15.00
2019-02-28T09:38:00.308Z,15.00
2019-02-28T09:41:22.836Z,15.20
2019-02-28T09:44:48.647Z,15.70
2019-02-28T09:48:07.724Z,16.30
2019-02-28T09:51:31.673Z,16.50
2019-02-28T09:54:49.106Z,17.00
2019-02-28T09:58:09.927Z,17.60
2019-02-28T10:01:28.822Z,17.60
2019-02-28T10:04:48.926Z,17.40
2019-02-28T10:08:15.154Z,17.80
2019-02-28T10:11:33.507Z,18.40
2019-02-28T10:14:52.529Z,19.20
2019-02-28T10:18:11.349Z,19.10
2019-02-28T10:21:33.269Z,19.30
2019-02-28T10:24:51.856Z,19.40
2019-02-28T10:28:09.190Z,19.20
2019-02-28T10:31:38.312Z,19.20
2019-02-28T10:35:20.373Z,19.20
2019-02-28T10:39:05.886Z,19.90
2019-02-28T10:42:50.465Z,19.00
2019-02-28T10:46:20.087Z,19.10
2019-02-28T10:49:58.264Z,19.90
2019-02-28T10:53:15.800Z,19.00
2019-02-28T10:56:35.906Z,19.20
2019-02-28T10:59:55.167Z,19.10
2019-02-28T11:03:14.391Z,18.50
2019-02-28T11:06:33.391Z,17.60
2019-02-28T11:09:52.184Z,18.00
2019-02-28T11:13:11.686Z,18.50
2019-02-28T11:16:30.515Z,18.90
2019-02-28T11:19:52.050Z,19.00
2019-02-28T11:23:14.323Z,18.80
2019-02-28T11:26:18.944Z,19.00
2019-02-28T11:29:45.479Z,18.50
2019-02-28T11:33:11.705Z,17.60
2019-02-28T11:36:38.026Z,17.80
2019-02-28T11:40:05.505Z,17.90
2019-02-28T11:43:49.850Z,17.30
2019-02-28T11:47:16.024Z,17.10
2019-02-28T11:50:34.970Z,17.30
2019-02-28T11:53:54.006Z,17.10
2019-02-28T11:57:12.979Z,17.30
2019-02-28T12:03:50.981Z,16.70
2019-02-28T12:07:09.498Z,16.60
2019-02-28T12:10:28.375Z,16.10
2019-02-28T12:13:47.242Z,16.00
2019-02-28T12:17:06.116Z,16.00
2019-02-28T12:20:26.450Z,16.00
2019-02-28T12:23:45.426Z,16.00
2019-02-28T12:27:06.922Z,16.30
2019-02-28T12:30:26.112Z,16.50
2019-02-28T12:33:44.759Z,16.40
2019-02-28T12:37:07.265Z,16.30
2019-02-28T12:40:26.206Z,16.30
2019-02-28T12:43:44.333Z,16.50
2019-02-28T12:47:03.295Z,16.50
2019-02-28T12:50:22.007Z,16.50
2019-02-28T12:53:42.388Z,16.50
2019-02-28T12:57:00.912Z,16.30
2019-02-28T13:00:23.123Z,16.20
2019-02-28T13:03:40.480Z,16.00
2019-02-28T13:06:59.534Z,15.90
2019-02-28T13:10:18.270Z,15.90
2019-02-28T13:13:45.880Z,15.90
2019-02-28T13:17:12.006Z,16.00
2019-02-28T13:20:38.102Z,16.10
2019-02-28T13:24:06.060Z,16.10
2019-02-28T13:27:50.312Z,16.10
2019-02-28T13:31:35.610Z,16.00
2019-02-28T13:38:49.629Z,15.60
2019-02-28T13:42:36.228Z,15.40
2019-02-28T13:46:19.570Z,15.10
2019-02-28T13:49:38.592Z,15.10
2019-02-28T13:53:03.346Z,15.00
2019-02-28T13:56:18.040Z,14.80
2019-02-28T13:59:36.802Z,14.50
2019-02-28T14:02:55.360Z,14.60
2019-02-28T14:06:18.902Z,14.30
2019-02-28T14:09:33.500Z,14.30
2019-02-28T14:12:53.210Z,14.30
2019-02-28T14:16:12.243Z,14.30
2019-02-28T14:19:30.958Z,14.20
2019-02-28T14:22:48.997Z,14.30
2019-02-28T14:26:07.681Z,14.40
2019-02-28T14:29:25.765Z,14.60
2019-02-28T14:32:45.534Z,14.90
2019-02-28T14:36:07.426Z,15.00
2019-02-28T14:39:24.080Z,15.10
2019-02-28T14:42:43.564Z,15.10
2019-02-28T14:46:02.493Z,15.20
2019-02-28T14:49:20.736Z,15.10
2019-02-28T14:52:39.377Z,15.10
2019-02-28T14:55:59.026Z,15.20
2019-02-28T14:59:17.150Z,15.10
2019-02-28T15:02:28.800Z,15.10
2019-02-28T15:06:10.766Z,15.10
2019-02-28T15:09:55.769Z,15.00
2019-02-28T15:13:40.823Z,14.70
2019-02-28T15:17:41.953Z,14.50
2019-02-28T15:25:19.359Z,14.30
2019-02-28T15:29:04.605Z,14.20
2019-02-28T15:36:20.975Z,14.00
2019-02-28T15:40:06.918Z,13.90
2019-02-28T15:47:36.919Z,13.80
2019-02-28T15:50:55.842Z,13.70
2019-02-28T15:54:21.771Z,13.60
2019-02-28T15:58:02.590Z,13.60
2019-02-28T16:01:17.360Z,13.60
2019-02-28T16:04:37.000Z,13.60
2019-02-28T16:11:55.052Z,13.70
2019-02-28T16:15:21.014Z,13.70
2019-02-28T16:18:56.725Z,13.60
2019-02-28T16:22:22.892Z,13.60
2019-02-28T16:25:50.205Z,13.50
2019-02-28T16:29:33.996Z,13.50
2019-02-28T16:32:59.930Z,13.40
2019-02-28T16:36:26.592Z,13.30
2019-02-28T16:40:11.863Z,13.20
2019-02-28T16:43:58.600Z,13.10
2019-02-28T16:47:44.348Z,13.00
2019-02-28T16:50:56.760Z,12.90
2019-02-28T16:54:22.536Z,12.80
2019-02-28T16:58:06.967Z,12.60
2019-02-28T17:05:43.472Z,12.60
2019-02-28T17:17:33.674Z,12.30
2019-02-28T17:20:59.901Z,12.20
2019-02-28T17:24:25.980Z,12.10
2019-02-28T17:28:12.261Z,12.10
2019-02-28T17:35:59.997Z,11.90
2019-02-28T17:39:25.891Z,12.00
2019-02-28T17:42:51.990Z,11.80
2019-02-28T17:46:17.917Z,11.60
2019-02-28T17:49:36.130Z,11.50
2019-02-28T17:52:55.767Z,11.40
2019-02-28T17:56:22.361Z,11.50
2019-02-28T17:59:36.062Z,11.60
2019-02-28T18:03:21.486Z,11.60
2019-02-28T18:07:08.066Z,11.80
2019-02-28T18:10:39.100Z,11.90
2019-02-28T18:14:11.318Z,12.10
2019-02-28T18:17:56.341Z,12.10
2019-02-28T18:21:41.923Z,12.00
2019-02-28T18:25:29.520Z,12.00
2019-02-28T18:29:32.312Z,12.20
2019-02-28T18:32:58.539Z,12.40
2019-02-28T18:36:15.551Z,12.40
2019-02-28T18:39:44.602Z,12.50
2019-02-28T18:47:18.882Z,12.50
2019-02-28T18:50:38.322Z,12.50
2019-02-28T18:53:57.102Z,12.60
2019-02-28T18:57:14.251Z,12.60
2019-02-28T19:00:40.205Z,12.60
2019-02-28T19:04:06.164Z,12.50
2019-02-28T19:07:32.129Z,12.50
2019-02-28T19:14:23.375Z,12.20
2019-02-28T19:21:37.570Z,11.60
2019-02-28T19:25:03.568Z,11.40
2019-02-28T19:32:37.595Z,11.20
2019-02-28T19:36:04.502Z,11.10
2019-02-28T19:39:30.542Z,11.00
2019-02-28T19:42:56.629Z,11.00
2019-02-28T19:46:41.520Z,10.90
2019-02-28T19:50:00.562Z,11.00
2019-02-28T19:53:18.700Z,11.00
2019-02-28T19:56:37.001Z,10.90
2019-02-28T19:59:55.986Z,10.90
2019-02-28T20:03:14.956Z,10.80
2019-02-28T20:06:33.830Z,10.80
2019-02-28T20:09:52.551Z,10.70
2019-02-28T20:13:11.504Z,10.60
2019-02-28T20:16:29.763Z,10.50
2019-02-28T20:19:48.709Z,10.40
2019-02-28T20:23:07.858Z,10.40
2019-02-28T20:26:28.088Z,10.30
2019-02-28T20:29:54.950Z,10.20
2019-02-28T20:33:06.868Z,10.20
2019-02-28T20:36:25.805Z,10.20
2019-02-28T20:39:44.946Z,10.10
2019-02-28T20:43:03.616Z,10.00
2019-02-28T20:46:22.220Z,9.90
2019-02-28T20:49:41.362Z,9.80
2019-02-28T20:53:00.352Z,9.70
2019-02-28T20:56:18.575Z,9.60
2019-02-28T20:59:37.012Z,9.60
2019-02-28T21:02:55.794Z,9.50
2019-02-28T21:06:15.993Z,9.40
2019-02-28T21:09:34.140Z,9.50
2019-02-28T21:12:52.345Z,9.50
2019-02-28T21:16:11.202Z,9.40
2019-02-28T21:19:30.115Z,9.40
2019-02-28T21:22:49.110Z,9.30
2019-02-28T21:26:07.138Z,9.30
2019-02-28T21:29:25.949Z,9.20
2019-02-28T21:32:44.578Z,9.20
2019-02-28T21:36:03.025Z,9.10
2019-02-28T21:39:21.913Z,9.10
2019-02-28T21:42:40.131Z,9.10
2019-02-28T21:45:59.021Z,9.20
2019-02-28T21:49:17.988Z,9.20
2019-02-28T21:52:36.780Z,9.30
2019-02-28T21:55:54.897Z,9.40
2019-02-28T21:59:13.625Z,9.30
2019-02-28T22:02:31.690Z,9.30
2019-02-28T22:05:38.566Z,9.40
2019-02-28T22:09:05.014Z,9.50
2019-02-28T22:12:30.932Z,9.60
2019-02-28T22:15:56.821Z,9.50
2019-02-28T22:19:22.714Z,9.70
2019-02-28T22:23:07.042Z,9.70
2019-02-28T22:26:13.907Z,9.80
2019-02-28T22:37:13.449Z,9.70
2019-02-28T22:40:39.486Z,9.70
2019-02-28T22:51:32.527Z,9.90
2019-02-28T22:54:51.633Z,9.90
2019-02-28T22:58:10.766Z,9.90
2019-02-28T23:01:29.204Z,9.80
2019-02-28T23:04:47.723Z,9.80
2019-02-28T23:08:06.454Z,9.80
2019-02-28T23:11:25.607Z,9.70
2019-02-28T23:14:44.351Z,9.60
2019-02-28T23:18:03.312Z,9.50
2019-02-28T23:21:21.380Z,9.70
2019-02-28T23:24:40.426Z,9.70
2019-02-28T23:27:58.538Z,9.60
2019-02-28T23:34:52.774Z,9.60
2019-02-28T23:38:11.769Z,9.40
2019-02-28T23:41:30.662Z,9.60
2019-02-28T23:44:49.000Z,9.60
2019-02-28T23:48:07.178Z,9.60
2019-02-28T23:51:26.310Z,9.60
2019-02-28T23:54:44.328Z,9.60
2019-02-28T23:58:02.491Z,9.50
